Time;durP1;ratioP1;P1;durP2;ratioP2;P2;SDS_P1;SDS_P2;PMS_P1;PMS_P2;Temp;Humidity;BMP_temperature;BMP_pressure;BME280_temperature;BME280_humidity;BME280_pressure;Samples;Min_cycle;Max_cycle;Signal;HPM_P1;HPM_P2
2021/12/31 00:00:10;;;;;;;29.10;17.40;;;;;;;-5.08;82.16;99427.41;5043932;28;20029;-58
2021/12/31 00:02:35;;;;;;;32.72;18.90;;;;;;;-4.66;82.35;99484.47;5043908;28;20340;-58
2021/12/31 00:05:02;;;;;;;30.67;18.15;;;;;;;-4.65;80.65;99493.78;5044660;28;20033;-57
2021/12/31 00:07:29;;;;;;;30.92;19.17;;;;;;;-4.56;81.23;99494.97;5045496;28;20282;-58
2021/12/31 00:09:59;;;;;;;34.83;20.33;;;;;;;-4.83;81.02;99486.38;5043261;28;20037;-57
2021/12/31 00:12:26;;;;;;;30.52;18.52;;;;;;;-4.67;81.59;99491.19;5045432;28;20028;-56
2021/12/31 00:14:52;;;;;;;35.60;20.75;;;;;;;-4.61;80.87;99482.97;5045483;28;20348;-56
2021/12/31 00:17:17;;;;;;;33.80;19.95;;;;;;;-4.60;80.50;99490.59;5052688;28;20032;-56
2021/12/31 00:19:45;;;;;;;34.22;19.60;;;;;;;-4.82;80.56;99485.56;5044274;28;20240;-56
2021/12/31 00:24:43;;;;;;;32.97;19.25;;;;;;;-4.59;81.17;99476.28;5043499;28;20033;-56
2021/12/31 00:27:08;;;;;;;35.33;19.88;;;;;;;-4.57;81.53;99482.28;5044376;28;20044;-56
2021/12/31 00:29:34;;;;;;;37.25;21.38;;;;;;;-4.85;82.30;99483.78;5042304;28;20025;-57
2021/12/31 00:31:59;;;;;;;33.47;19.88;;;;;;;-4.64;82.01;99486.25;5043977;28;20029;-57
2021/12/31 00:34:25;;;;;;;38.38;21.58;;;;;;;-4.63;82.11;99466.88;5044413;28;20079;-57
2021/12/31 00:36:51;;;;;;;33.40;20.63;;;;;;;-4.51;82.33;99474.91;5044447;28;20055;-58
2021/12/31 00:39:16;;;;;;;37.45;20.13;;;;;;;-4.47;82.00;99484.31;5044642;28;20242;-56
2021/12/31 00:41:42;;;;;;;37.05;21.17;;;;;;;-4.81;81.45;99478.03;5043956;28;20021;-56
2021/12/31 00:44:08;;;;;;;35.28;19.55;;;;;;;-4.90;81.84;99483.63;5043474;28;20041;-56
2021/12/31 00:46:34;;;;;;;36.88;20.52;;;;;;;-4.77;81.62;99474.84;5044669;28;20050;-57
2021/12/31 00:49:03;;;;;;;38.33;20.63;;;;;;;-4.93;81.99;99480.09;5042301;28;20033;-57
2021/12/31 00:51:29;;;;;;;33.92;19.80;;;;;;;-4.80;83.11;99446.94;5042982;28;20017;-57
2021/12/31 00:53:54;;;;;;;33.55;19.75;;;;;;;-4.65;81.33;99458.41;5043672;28;20052;-57
2021/12/31 00:56:20;;;;;;;43.00;20.98;;;;;;;-4.65;80.96;99461.78;5043462;28;20313;-56
2021/12/31 00:58:46;;;;;;;34.45;20.35;;;;;;;-4.75;81.35;99447.94;5043130;28;20087;-57
2021/12/31 01:01:20;;;;;;;33.13;20.10;;;;;;;-4.93;81.51;99449.81;5043334;28;20029;-58
2021/12/31 01:03:47;;;;;;;34.78;20.17;;;;;;;-4.97;83.11;99442.91;5043460;28;20033;-58
2021/12/31 01:06:13;;;;;;;35.80;21.17;;;;;;;-4.72;83.68;99443.03;5044503;28;20103;-58
2021/12/31 01:08:39;;;;;;;35.80;20.65;;;;;;;-4.58;82.81;99440.97;5043288;28;20053;-58
2021/12/31 01:11:05;;;;;;;36.60;19.95;;;;;;;-4.52;82.29;99438.69;5048743;28;20044;-56
2021/12/31 01:13:36;;;;;;;35.13;19.70;;;;;;;-4.55;82.61;99445.28;5049959;28;20029;-58
2021/12/31 01:16:04;;;;;;;37.83;20.00;;;;;;;-4.63;80.85;99439.09;5043361;28;20092;-57
2021/12/31 01:21:15;;;;;;;37.83;20.38;;;;;;;-4.79;82.03;99442.75;5044375;28;20033;-57
2021/12/31 01:23:40;;;;;;;34.75;19.48;;;;;;;-4.55;81.48;99442.75;5042363;28;20036;-56
2021/12/31 01:26:06;;;;;;;37.15;20.50;;;;;;;-4.54;81.10;99431.84;5042163;28;20021;-57
2021/12/31 01:28:32;;;;;;;32.58;19.10;;;;;;;-4.45;81.80;99443.94;5043464;28;20030;-57
2021/12/31 01:30:57;;;;;;;31.60;18.60;;;;;;;-4.49;81.13;99434.53;5043920;28;20064;-57
2021/12/31 01:33:23;;;;;;;32.55;19.25;;;;;;;-4.49;80.92;99422.75;5042485;28;20187;-56
2021/12/31 01:35:49;;;;;;;33.72;19.48;;;;;;;-4.44;81.59;99426.31;5042888;28;20025;-55
2021/12/31 01:38:16;;;;;;;32.78;19.38;;;;;;;-4.46;81.85;99422.88;5043722;28;20075;-56
2021/12/31 01:40:42;;;;;;;36.20;19.52;;;;;;;-4.44;81.43;99421.25;5042693;28;20021;-56
2021/12/31 01:43:07;;;;;;;34.78;19.40;;;;;;;-4.38;80.86;99413.88;5043618;28;20559;-56
2021/12/31 01:45:43;;;;;;;30.55;19.05;;;;;;;-4.44;82.03;99410.28;5043697;28;20048;-57
2021/12/31 01:48:21;;;;;;;30.30;18.25;;;;;;;-4.76;81.42;99418.47;5043356;28;20314;-58
2021/12/31 01:50:47;;;;;;;34.92;18.65;;;;;;;-4.68;82.63;99406.09;5042209;28;20029;-57
2021/12/31 01:53:13;;;;;;;32.42;18.40;;;;;;;-4.93;82.38;99409.41;5043065;28;20100;-57
2021/12/31 01:55:40;;;;;;;32.25;19.15;;;;;;;-4.83;81.92;99414.00;5040612;28;20100;-58
2021/12/31 01:58:07;;;;;;;33.90;19.35;;;;;;;-4.68;82.72;99414.53;5043212;28;20067;-58
2021/12/31 02:00:36;;;;;;;32.15;18.92;;;;;;;-4.58;83.01;99407.28;5039980;28;20034;-58
2021/12/31 02:03:01;;;;;;;31.45;18.70;;;;;;;-4.72;82.94;99412.72;5052562;28;20036;-58
2021/12/31 02:05:28;;;;;;;33.67;19.85;;;;;;;-4.85;83.68;99400.44;5048545;28;20056;-58
2021/12/31 02:07:53;;;;;;;34.63;19.30;;;;;;;-4.70;82.79;99393.41;5042822;28;20090;-58
2021/12/31 02:10:20;;;;;;;37.28;20.63;;;;;;;-4.75;82.99;99389.84;5042871;28;20044;-56
2021/12/31 02:12:47;;;;;;;30.30;18.02;;;;;;;-4.70;82.68;99390.88;5041561;28;20097;-56
2021/12/31 02:15:17;;;;;;;31.63;19.17;;;;;;;-4.58;82.82;99390.44;5041548;28;20326;-57
2021/12/31 02:17:44;;;;;;;32.88;19.13;;;;;;;-4.66;83.02;99378.34;5040755;28;20025;-57
2021/12/31 02:20:10;;;;;;;32.20;18.90;;;;;;;-4.82;82.02;99380.34;5041496;28;20314;-57
2021/12/31 02:22:43;;;;;;;31.23;18.17;;;;;;;-4.73;81.54;99378.16;5042492;28;20033;-57
2021/12/31 02:25:09;;;;;;;31.55;17.90;;;;;;;-4.54;82.02;99384.69;5042151;28;20036;-57
2021/12/31 02:27:39;;;;;;;35.05;19.95;;;;;;;-5.12;81.78;99320.38;5041383;28;20033;-57
2021/12/31 02:30:08;;;;;;;34.40;19.70;;;;;;;-4.79;82.62;99380.44;5039647;28;20033;-58
2021/12/31 02:32:33;;;;;;;31.23;19.15;;;;;;;-4.71;82.53;99370.63;5042853;28;20021;-58
2021/12/31 02:34:59;;;;;;;31.83;18.33;;;;;;;-4.85;81.33;99367.63;5042841;28;20060;-58
2021/12/31 02:37:25;;;;;;;34.03;20.27;;;;;;;-4.87;82.20;99354.94;5036627;28;20022;-58
2021/12/31 02:39:51;;;;;;;34.10;18.73;;;;;;;-4.86;81.75;99373.47;5039132;28;20504;-58
2021/12/31 02:42:16;;;;;;;31.63;18.95;;;;;;;-4.77;81.88;99368.75;5042955;28;20052;-57
2021/12/31 02:44:43;;;;;;;32.17;18.63;;;;;;;-4.82;82.64;99364.34;5041838;28;20079;-57
2021/12/31 02:47:08;;;;;;;29.77;18.48;;;;;;;-4.78;82.25;99356.91;5041425;28;20026;-58
2021/12/31 02:49:41;;;;;;;34.45;19.08;;;;;;;-4.76;83.30;99350.28;5043086;28;20072;-57
2021/12/31 02:52:12;;;;;;;35.42;20.52;;;;;;;-5.18;82.71;99286.53;5074008;28;20037;-57
2021/12/31 02:54:43;;;;;;;31.70;18.05;;;;;;;-4.93;82.67;99354.75;5041225;28;20065;-57
2021/12/31 02:57:09;;;;;;;32.05;18.33;;;;;;;-4.73;82.94;99339.38;5042297;28;20028;-57
2021/12/31 02:59:35;;;;;;;31.77;17.95;;;;;;;-4.75;82.22;99334.28;5042076;28;20022;-57
2021/12/31 03:02:03;;;;;;;29.23;17.98;;;;;;;-4.62;82.27;99324.63;5042350;28;20029;-57
2021/12/31 03:04:30;;;;;;;30.80;18.50;;;;;;;-4.62;81.63;99324.63;5041598;28;20027;-57
2021/12/31 03:06:57;;;;;;;29.55;17.73;;;;;;;-4.81;81.64;99329.03;5043152;28;20025;-58
2021/12/31 03:09:25;;;;;;;33.72;18.88;;;;;;;-4.71;83.11;99338.63;5046481;28;20026;-58
2021/12/31 03:11:56;;;;;;;31.63;19.27;;;;;;;-4.70;82.73;99342.03;5045447;28;20029;-57
2021/12/31 03:14:22;;;;;;;32.90;18.73;;;;;;;-4.67;83.24;99327.00;5045693;28;20104;-57
2021/12/31 03:16:49;;;;;;;33.45;19.67;;;;;;;-4.71;81.62;99320.97;5045391;28;20033;-58
2021/12/31 03:19:16;;;;;;;32.40;19.23;;;;;;;-4.82;82.47;99324.78;5081997;28;20412;-58
2021/12/31 03:21:41;;;;;;;35.50;20.33;;;;;;;-4.64;82.39;99324.56;5058734;28;20055;-57
2021/12/31 03:24:07;;;;;;;35.80;20.80;;;;;;;-4.70;82.89;99320.16;5048745;28;20017;-58
2021/12/31 03:26:34;;;;;;;33.38;19.23;;;;;;;-4.82;81.81;99307.09;5046237;28;20417;-58
2021/12/31 03:29:01;;;;;;;35.20;19.63;;;;;;;-4.80;82.38;99320.66;5044504;28;20037;-58
2021/12/31 03:31:27;;;;;;;35.50;20.80;;;;;;;-4.79;83.47;99319.84;5046330;28;20021;-57
2021/12/31 03:33:53;;;;;;;33.15;19.60;;;;;;;-4.82;83.37;99317.22;5041821;28;20022;-58
2021/12/31 03:36:18;;;;;;;34.70;20.20;;;;;;;-4.79;83.92;99317.31;5033474;28;20033;-57
2021/12/31 03:38:44;;;;;;;31.67;18.67;;;;;;;-4.76;83.73;99316.56;5056429;28;20528;-57
2021/12/31 03:41:10;;;;;;;35.42;20.42;;;;;;;-4.66;82.07;99305.09;5044993;28;20056;-57
2021/12/31 03:43:35;;;;;;;36.78;19.77;;;;;;;-4.71;82.92;99299.91;5045922;28;20037;-58
2021/12/31 03:46:01;;;;;;;34.70;19.75;;;;;;;-4.81;82.74;99281.06;5044817;28;20222;-58
2021/12/31 03:48:27;;;;;;;34.72;19.67;;;;;;;-4.74;83.57;99287.19;5046663;28;20030;-57
2021/12/31 03:50:53;;;;;;;37.33;20.83;;;;;;;-4.71;82.50;99282.22;5046516;28;20036;-58
2021/12/31 03:53:19;;;;;;;35.38;20.00;;;;;;;-4.78;82.35;99285.34;5046334;28;20175;-58
2021/12/31 03:55:46;;;;;;;37.92;20.65;;;;;;;-4.92;84.10;99269.72;5046160;28;20032;-59
2021/12/31 03:58:11;;;;;;;36.42;20.38;;;;;;;-5.05;83.17;99278.56;5046298;28;20025;-59
2021/12/31 04:00:38;;;;;;;39.75;20.23;;;;;;;-4.77;83.35;99280.34;5045945;28;20067;-58
2021/12/31 04:03:11;;;;;;;39.08;21.77;;;;;;;-4.72;82.23;99275.44;5046555;28;20055;-59
2021/12/31 04:05:39;;;;;;;37.42;20.52;;;;;;;-4.71;82.19;99278.03;5029597;28;20337;-59
2021/12/31 04:08:05;;;;;;;33.28;20.38;;;;;;;-4.61;82.58;99271.59;5043262;28;20037;-59
2021/12/31 04:10:31;;;;;;;38.20;21.20;;;;;;;-4.56;82.71;99265.06;5045590;28;20025;-59
2021/12/31 04:12:57;;;;;;;42.28;22.65;;;;;;;-4.54;83.13;99260.88;5044995;28;20317;-61
2021/12/31 04:15:23;;;;;;;39.80;21.27;;;;;;;-4.63;81.75;99265.66;5046268;28;20306;-57
2021/12/31 04:17:48;;;;;;;40.83;22.05;;;;;;;-4.73;82.42;99261.09;5045218;28;20089;-58
2021/12/31 04:20:20;;;;;;;40.28;22.80;;;;;;;-4.85;83.74;99248.94;5045590;28;20021;-58
2021/12/31 04:22:53;;;;;;;47.78;24.58;;;;;;;-4.65;82.91;99266.41;5043504;28;20040;-58
2021/12/31 04:25:20;;;;;;;43.28;23.20;;;;;;;-4.66;82.29;99242.81;5045241;28;20025;-58
2021/12/31 04:27:45;;;;;;;38.00;22.33;;;;;;;-4.72;83.23;99248.53;5045634;28;20250;-57
2021/12/31 04:30:11;;;;;;;39.03;21.60;;;;;;;-4.58;82.26;99245.59;5040492;28;20033;-58
2021/12/31 04:32:39;;;;;;;44.42;24.33;;;;;;;-5.15;84.85;99231.09;5055212;28;20025;-57
2021/12/31 04:35:06;;;;;;;41.65;23.00;;;;;;;-5.04;84.44;99253.38;5043519;28;20033;-57
2021/12/31 04:37:32;;;;;;;44.85;24.92;;;;;;;-4.77;84.71;99251.72;5043804;28;20049;-57
2021/12/31 04:39:57;;;;;;;42.33;23.67;;;;;;;-4.65;83.19;99253.78;5045705;28;20068;-57
2021/12/31 04:42:23;;;;;;;40.10;22.15;;;;;;;-4.60;83.73;99249.72;5044318;28;20025;-57
2021/12/31 04:44:48;;;;;;;42.60;24.27;;;;;;;-4.68;83.42;99245.28;5044137;28;20313;-57
2021/12/31 04:47:14;;;;;;;44.67;23.52;;;;;;;-4.58;83.44;99255.69;5044293;28;20044;-57
2021/12/31 04:49:40;;;;;;;40.88;22.52;;;;;;;-4.58;82.60;99253.16;5043435;28;20184;-58
2021/12/31 04:52:05;;;;;;;41.22;23.30;;;;;;;-4.52;82.61;99240.72;5044544;28;20021;-58
2021/12/31 04:54:31;;;;;;;41.67;21.80;;;;;;;-4.53;81.42;99260.09;5044223;28;20025;-58
2021/12/31 04:56:58;;;;;;;41.50;22.35;;;;;;;-4.40;83.36;99266.38;5042066;28;20021;-58
2021/12/31 04:59:24;;;;;;;44.88;23.23;;;;;;;-4.38;81.69;99264.75;5042671;28;20097;-58
2021/12/31 05:01:49;;;;;;;37.53;21.55;;;;;;;-4.45;81.60;99255.25;5043855;28;20029;-58
2021/12/31 05:04:15;;;;;;;38.40;21.60;;;;;;;-4.44;81.22;99263.72;5043150;28;20028;-58
2021/12/31 05:06:42;;;;;;;46.78;22.90;;;;;;;-4.49;81.88;99257.66;5044959;28;20036;-58
2021/12/31 05:09:08;;;;;;;39.83;21.40;;;;;;;-4.47;83.24;99253.53;5043122;28;20056;-57
2021/12/31 05:11:34;;;;;;;36.15;20.52;;;;;;;-4.45;82.73;99244.31;5045067;28;20425;-58
2021/12/31 05:13:59;;;;;;;42.38;22.80;;;;;;;-4.33;82.75;99247.22;5043181;28;20037;-58
2021/12/31 05:16:25;;;;;;;41.55;23.40;;;;;;;-4.34;82.15;99245.50;5043795;28;20120;-58
2021/12/31 05:18:50;;;;;;;39.08;23.33;;;;;;;-4.58;81.75;99235.47;5043658;28;20033;-57
2021/12/31 05:21:16;;;;;;;43.83;24.10;;;;;;;-4.78;82.65;99234.84;5044804;28;20033;-57
2021/12/31 05:23:41;;;;;;;42.03;22.35;;;;;;;-4.85;83.21;99226.19;5043639;28;20017;-57
2021/12/31 05:26:07;;;;;;;39.83;21.98;;;;;;;-4.77;83.18;99236.56;5044616;28;20095;-58
2021/12/31 05:28:33;;;;;;;46.90;23.40;;;;;;;-4.85;83.97;99231.25;5043430;28;20029;-58
2021/12/31 05:30:59;;;;;;;40.05;22.13;;;;;;;-4.93;84.45;99233.53;5043902;28;20060;-58
2021/12/31 05:33:24;;;;;;;40.63;22.08;;;;;;;-4.89;84.51;99216.81;5044540;28;20025;-57
2021/12/31 05:35:50;;;;;;;41.95;22.52;;;;;;;-4.71;84.90;99217.41;5043187;28;20022;-58
2021/12/31 05:38:16;;;;;;;42.13;22.52;;;;;;;-4.69;82.98;99217.44;5043139;28;20045;-58
2021/12/31 05:40:41;;;;;;;45.45;24.25;;;;;;;-4.62;83.50;99210.94;5043158;28;20017;-57
2021/12/31 05:43:07;;;;;;;43.50;22.33;;;;;;;-4.77;83.98;99208.78;5043061;28;20066;-58
2021/12/31 05:45:32;;;;;;;43.90;23.52;;;;;;;-4.75;84.92;99207.16;5044364;28;20233;-58
